createdAt,value
2022-10-29T00:01:01.799Z,98169.41
2022-10-29T00:03:29.061Z,98168.81
2022-10-29T00:05:59.521Z,98166.75
2022-10-29T00:08:28.557Z,98162.41
2022-10-29T00:10:56.189Z,98158.03
2022-10-29T00:13:23.720Z,98155.22
2022-10-29T00:15:50.950Z,98154.50
2022-10-29T00:18:18.211Z,98153.44
2022-10-29T00:20:45.554Z,98157.53
2022-10-29T00:23:12.902Z,98154.94
2022-10-29T00:25:40.151Z,98159.28
2022-10-29T00:28:07.407Z,98157.03
2022-10-29T00:30:35.816Z,98164.31
2022-10-29T00:33:03.029Z,98163.59
2022-10-29T00:35:30.219Z,98164.00
2022-10-29T00:37:57.688Z,98167.13
2022-10-29T00:40:25.188Z,98161.84
2022-10-29T00:42:52.371Z,98165.13
2022-10-29T00:45:21.256Z,98161.19
2022-10-29T00:47:53.549Z,98161.34
2022-10-29T00:50:23.706Z,98166.38
2022-10-29T00:52:52.202Z,98162.31
2022-10-29T00:55:20.985Z,98162.47
2022-10-29T00:57:54.767Z,98144.13
2022-10-29T01:00:22.453Z,98145.66
2022-10-29T01:02:50.203Z,98135.72
2022-10-29T01:05:21.623Z,98128.19
2022-10-29T01:07:49.546Z,98129.38
2022-10-29T01:10:22.807Z,98131.13
2022-10-29T01:13:22.453Z,98126.84
2022-10-29T01:16:11.319Z,98134.22
2022-10-29T01:18:58.281Z,98144.72
2022-10-29T01:21:38.672Z,98142.56
2022-10-29T01:24:14.502Z,98138.47
2022-10-29T01:27:20.497Z,98138.66
2022-10-29T01:30:13.703Z,98136.72
2022-10-29T01:33:09.975Z,98125.75
2022-10-29T01:36:19.143Z,98131.19
2022-10-29T01:39:26.688Z,98132.91
2022-10-29T01:42:28.902Z,98148.47
2022-10-29T01:45:33.944Z,98140.22
2022-10-29T01:48:12.106Z,98143.16
2022-10-29T01:50:44.587Z,98138.31
2022-10-29T01:53:12.086Z,98144.81
2022-10-29T01:55:39.441Z,98152.22
2022-10-29T01:58:07.667Z,98148.13
2022-10-29T02:00:56.747Z,98133.72
2022-10-29T02:04:03.832Z,98133.84
2022-10-29T02:07:30.553Z,98138.69
2022-10-29T02:10:19.751Z,98135.91
2022-10-29T02:12:54.092Z,98136.03
2022-10-29T02:15:48.499Z,98132.94
2022-10-29T02:18:17.278Z,98142.31
2022-10-29T02:20:46.865Z,98137.03
2022-10-29T02:23:15.418Z,98140.47
2022-10-29T02:25:42.931Z,98138.56
2022-10-29T02:28:10.441Z,98137.94
2022-10-29T02:30:37.687Z,98147.38
2022-10-29T02:33:05.044Z,98129.38
2022-10-29T02:35:32.355Z,98127.22
2022-10-29T02:37:59.577Z,98121.63
2022-10-29T02:40:26.800Z,98124.97
2022-10-29T02:42:54.959Z,98112.78
2022-10-29T02:45:22.595Z,98122.13
2022-10-29T02:47:49.818Z,98134.28
2022-10-29T02:50:17.124Z,98132.59
2022-10-29T02:52:44.312Z,98131.06
2022-10-29T02:55:11.536Z,98110.78
2022-10-29T02:57:38.749Z,98122.78
2022-10-29T03:00:06.861Z,98115.84
2022-10-29T03:02:34.193Z,98112.34
2022-10-29T03:05:01.596Z,98107.22
2022-10-29T03:07:28.927Z,98103.81
2022-10-29T03:09:56.124Z,98114.56
2022-10-29T03:12:23.323Z,98101.41
2022-10-29T03:14:50.575Z,98094.59
2022-10-29T03:17:17.747Z,98086.94
2022-10-29T03:19:44.917Z,98071.94
2022-10-29T03:22:12.114Z,98078.88
2022-10-29T03:24:39.320Z,98076.91
2022-10-29T03:27:06.636Z,98060.19
2022-10-29T03:29:33.804Z,98064.50
2022-10-29T03:32:01.049Z,98070.97
2022-10-29T03:34:28.340Z,98067.53
2022-10-29T03:36:55.525Z,98055.72
2022-10-29T03:39:22.715Z,98065.78
2022-10-29T03:41:49.885Z,98067.53
2022-10-29T03:44:17.173Z,98058.22
2022-10-29T03:46:44.353Z,98046.72
2022-10-29T03:49:11.606Z,98066.97
2022-10-29T03:51:39.687Z,98080.94
2022-10-29T03:54:06.861Z,98080.94
2022-10-29T03:56:34.058Z,98080.25
2022-10-29T03:59:01.220Z,98083.56
2022-10-29T04:01:28.622Z,98094.59
2022-10-29T04:03:55.857Z,98092.72
2022-10-29T04:06:23.266Z,98081.81
2022-10-29T04:08:50.526Z,98074.94
2022-10-29T04:11:17.650Z,98075.72
2022-10-29T04:13:44.846Z,98090.34
2022-10-29T04:16:12.082Z,98131.19
2022-10-29T04:18:39.379Z,98112.13
2022-10-29T04:27:01.739Z,98162.66
2022-10-29T04:29:30.792Z,98139.41
2022-10-29T04:31:58.020Z,98128.38
2022-10-29T04:34:25.326Z,98132.53
2022-10-29T04:36:53.710Z,98151.22
2022-10-29T04:39:23.379Z,98169.16
2022-10-29T04:41:50.952Z,98126.97
2022-10-29T04:44:21.849Z,98122.72
2022-10-29T04:46:49.178Z,98124.75
2022-10-29T04:49:16.551Z,98129.03
2022-10-29T04:51:43.903Z,98125.56
2022-10-29T04:54:11.480Z,98116.31
2022-10-29T04:56:38.668Z,98102.19
2022-10-29T04:59:05.880Z,98101.84
2022-10-29T05:01:33.316Z,98112.19
2022-10-29T05:04:00.652Z,98131.41
2022-10-29T05:06:27.923Z,98133.13
2022-10-29T05:08:55.135Z,98115.38
2022-10-29T05:11:22.355Z,98114.19
2022-10-29T05:13:52.091Z,98112.91
2022-10-29T05:16:19.396Z,98085.81
2022-10-29T05:18:46.697Z,98085.09
2022-10-29T05:21:14.069Z,98078.44
2022-10-29T05:23:41.384Z,98071.00
2022-10-29T05:26:08.601Z,98053.94
2022-10-29T05:28:36.083Z,98075.41
2022-10-29T05:31:03.410Z,98076.81
2022-10-29T05:33:30.697Z,98056.38
2022-10-29T05:36:01.183Z,98061.44
2022-10-29T05:38:28.467Z,98059.66
2022-10-29T05:40:59.476Z,98063.38
2022-10-29T05:43:27.012Z,98075.56
2022-10-29T05:45:54.549Z,98065.59
2022-10-29T05:48:21.780Z,98074.81
2022-10-29T05:50:49.237Z,98073.81
2022-10-29T05:53:16.525Z,98081.44
2022-10-29T05:55:43.800Z,98086.84
2022-10-29T05:58:13.523Z,98094.00
2022-10-29T06:00:44.065Z,98083.34
2022-10-29T06:03:18.134Z,98092.91
2022-10-29T06:05:47.762Z,98089.84
2022-10-29T06:08:15.589Z,98071.75
2022-10-29T06:10:42.966Z,98087.16
2022-10-29T06:13:21.729Z,98091.97
2022-10-29T06:15:50.358Z,98084.34
2022-10-29T06:18:17.643Z,98095.03
2022-10-29T06:20:44.961Z,98109.31
2022-10-29T06:23:12.290Z,98113.47
2022-10-29T06:25:39.808Z,98106.41
2022-10-29T06:28:12.264Z,98112.09
2022-10-29T06:30:39.578Z,98120.94
2022-10-29T06:33:07.282Z,98113.81
2022-10-29T06:38:10.844Z,98091.66
2022-10-29T06:40:40.502Z,98093.13
2022-10-29T06:43:12.551Z,98131.47
2022-10-29T06:45:40.008Z,98135.50
2022-10-29T06:48:07.472Z,98119.88
2022-10-29T06:50:34.950Z,98119.63
2022-10-29T06:53:09.715Z,98122.09
2022-10-29T06:55:36.949Z,98108.31
2022-10-29T06:58:08.218Z,98118.63
2022-10-29T07:00:35.892Z,98124.44
2022-10-29T07:03:05.168Z,98134.19
2022-10-29T07:05:34.001Z,98134.84
2022-10-29T07:08:02.101Z,98141.06
2022-10-29T07:10:31.815Z,98138.41
2022-10-29T07:13:00.006Z,98142.53
2022-10-29T07:15:30.328Z,98155.47
2022-10-29T07:18:07.557Z,98158.59
2022-10-29T07:20:38.789Z,98163.81
2022-10-29T07:23:06.223Z,98166.75
2022-10-29T07:25:36.389Z,98179.75
2022-10-29T07:28:06.390Z,98190.56
2022-10-29T07:30:34.470Z,98187.09
2022-10-29T07:33:01.882Z,98193.25
2022-10-29T07:35:29.460Z,98197.13
2022-10-29T07:38:09.126Z,98187.56
2022-10-29T07:40:48.404Z,98193.94
2022-10-29T07:43:16.816Z,98198.78
2022-10-29T07:45:47.150Z,98195.66
2022-10-29T07:48:14.339Z,98203.00
2022-10-29T07:50:42.024Z,98220.75
2022-10-29T07:53:09.953Z,98220.38
2022-10-29T07:55:37.525Z,98232.28
2022-10-29T07:58:08.661Z,98227.81
2022-10-29T08:00:39.922Z,98239.91
2022-10-29T08:03:07.290Z,98225.69
2022-10-29T08:05:35.094Z,98232.59
2022-10-29T08:08:02.548Z,98226.56
2022-10-29T08:10:31.313Z,98227.03
2022-10-29T08:13:03.160Z,98224.94
2022-10-29T08:15:33.380Z,98217.56
2022-10-29T08:18:01.788Z,98222.34
2022-10-29T08:20:30.735Z,98212.69
2022-10-29T08:23:00.929Z,98225.53
2022-10-29T08:25:28.622Z,98220.41
2022-10-29T08:28:04.872Z,98218.84
2022-10-29T08:30:32.930Z,98218.66
2022-10-29T08:33:01.679Z,98235.41
2022-10-29T08:35:30.103Z,98235.59
2022-10-29T08:37:57.670Z,98234.41
2022-10-29T08:40:31.637Z,98235.81
2022-10-29T08:43:55.680Z,98240.69
2022-10-29T08:46:42.386Z,98251.38
2022-10-29T08:49:21.937Z,98249.19
2022-10-29T08:51:58.756Z,98250.97
2022-10-29T08:54:31.771Z,98250.34
2022-10-29T08:57:33.365Z,98255.31
2022-10-29T09:00:16.960Z,98261.75
2022-10-29T09:02:44.881Z,98254.38
2022-10-29T09:05:21.230Z,98256.19
2022-10-29T09:08:20.486Z,98251.94
2022-10-29T09:11:06.185Z,98246.59
2022-10-29T09:14:15.640Z,98258.25
2022-10-29T09:16:57.380Z,98249.13
2022-10-29T09:19:47.513Z,98253.13
2022-10-29T09:22:47.756Z,98258.16
2022-10-29T09:25:55.925Z,98245.38
2022-10-29T09:28:45.049Z,98257.06
2022-10-29T09:31:28.710Z,98251.81
2022-10-29T09:34:04.569Z,98242.84
2022-10-29T09:36:32.843Z,98241.06
2022-10-29T09:39:10.111Z,98241.44
2022-10-29T09:41:39.113Z,98233.59
2022-10-29T09:44:41.521Z,98235.47
2022-10-29T09:47:51.122Z,98232.09
2022-10-29T09:50:56.742Z,98229.16
2022-10-29T09:53:24.501Z,98220.66
2022-10-29T09:55:54.879Z,98210.09
2022-10-29T09:58:26.036Z,98203.56
2022-10-29T10:00:55.043Z,98189.25
2022-10-29T10:03:42.034Z,98180.47
2022-10-29T10:06:12.987Z,98182.84
2022-10-29T10:09:05.018Z,98172.06
2022-10-29T10:11:49.282Z,98168.84
2022-10-29T10:14:24.184Z,98179.28
2022-10-29T10:17:03.222Z,98168.25
2022-10-29T10:19:32.843Z,98177.16
2022-10-29T10:22:16.549Z,98173.84
2022-10-29T10:24:43.853Z,98166.72
2022-10-29T10:27:20.478Z,98144.47
2022-10-29T10:30:12.750Z,98140.31
2022-10-29T10:32:40.198Z,98137.38
2022-10-29T10:35:30.938Z,98143.53
2022-10-29T10:38:06.634Z,98136.69
2022-10-29T10:40:33.962Z,98135.91
2022-10-29T10:43:05.514Z,98133.47
2022-10-29T10:45:40.209Z,98135.91
2022-10-29T10:48:14.664Z,98139.72
2022-10-29T10:50:42.120Z,98139.38
2022-10-29T10:53:23.067Z,98145.94
2022-10-29T10:55:57.986Z,98133.09
2022-10-29T10:58:41.687Z,98131.59
2022-10-29T11:01:23.856Z,98124.97
2022-10-29T11:04:13.106Z,98130.84
2022-10-29T11:06:49.866Z,98123.25
2022-10-29T11:09:37.675Z,98113.84
2022-10-29T11:12:44.475Z,98125.34
2022-10-29T11:15:36.443Z,98108.69
2022-10-29T11:18:42.320Z,98106.19
2022-10-29T11:21:29.285Z,98108.13
2022-10-29T11:24:18.161Z,98103.75
2022-10-29T11:26:59.939Z,98099.06
2022-10-29T11:30:10.119Z,98099.06
2022-10-29T11:33:02.455Z,98097.00
2022-10-29T11:36:21.287Z,98105.50
2022-10-29T11:39:19.298Z,98096.97
2022-10-29T11:41:49.587Z,98105.16
2022-10-29T11:44:20.791Z,98107.69
2022-10-29T11:47:27.948Z,98093.38
2022-10-29T11:50:21.147Z,98097.31
2022-10-29T11:52:54.842Z,98088.31
2022-10-29T11:55:46.477Z,98093.94
2022-10-29T11:58:42.899Z,98092.53
2022-10-29T12:01:37.967Z,98088.72
2022-10-29T12:04:47.525Z,98089.50
2022-10-29T12:07:22.434Z,98090.88
2022-10-29T12:10:02.137Z,98092.00
2022-10-29T12:12:48.316Z,98090.00
2022-10-29T12:15:47.113Z,98082.34
2022-10-29T12:18:30.611Z,98079.34
2022-10-29T12:21:22.629Z,98071.31
2022-10-29T12:24:11.310Z,98061.38
2022-10-29T12:26:46.605Z,98066.72
2022-10-29T12:29:27.890Z,98064.94
2022-10-29T12:32:20.338Z,98059.06
2022-10-29T12:34:55.974Z,98062.09
2022-10-29T12:37:38.008Z,98066.78
2022-10-29T12:40:26.036Z,98066.84
2022-10-29T12:42:54.918Z,98062.09
2022-10-29T12:46:06.357Z,98056.28
2022-10-29T12:48:49.670Z,98048.44
2022-10-29T12:51:49.078Z,98049.03
2022-10-29T12:54:41.161Z,98042.81
2022-10-29T12:57:14.563Z,98033.59
2022-10-29T12:59:47.174Z,98028.44
2022-10-29T13:02:38.826Z,98020.00
2022-10-29T13:05:09.820Z,98020.50
2022-10-29T13:07:46.443Z,98013.63
2022-10-29T13:10:22.586Z,98013.84
2022-10-29T13:12:55.692Z,98008.50
2022-10-29T13:15:34.853Z,98005.44
2022-10-29T13:18:37.648Z,98003.06
2022-10-29T13:21:08.744Z,98004.94
2022-10-29T13:23:37.719Z,98008.59
2022-10-29T13:26:09.488Z,98004.53
2022-10-29T13:28:36.695Z,98007.97
2022-10-29T13:31:06.878Z,98016.50
2022-10-29T13:33:34.038Z,98012.16
2022-10-29T13:36:16.549Z,98014.66
2022-10-29T13:39:07.369Z,98013.25
2022-10-29T13:41:43.394Z,98011.88
2022-10-29T13:44:23.667Z,98019.09
2022-10-29T13:47:05.302Z,98014.69
2022-10-29T13:49:37.688Z,98013.25
2022-10-29T13:52:09.057Z,98002.25
2022-10-29T13:55:06.423Z,98009.53
2022-10-29T13:57:59.516Z,98018.38
2022-10-29T14:00:28.222Z,98012.38
2022-10-29T14:03:17.018Z,98005.56
2022-10-29T14:06:14.079Z,98010.53
2022-10-29T14:08:49.054Z,98008.31
2022-10-29T14:11:29.934Z,98027.72
2022-10-29T14:14:31.340Z,98021.88
2022-10-29T14:17:16.320Z,98026.34
2022-10-29T14:19:49.485Z,98020.88
2022-10-29T14:22:28.685Z,98019.16
2022-10-29T14:24:57.096Z,98027.69
2022-10-29T14:27:24.317Z,98019.41
2022-10-29T14:29:53.162Z,98018.94
2022-10-29T14:32:22.833Z,98023.25
2022-10-29T14:34:51.862Z,98007.66
2022-10-29T14:37:37.693Z,98009.31
2022-10-29T14:40:21.412Z,98019.50
2022-10-29T14:42:54.058Z,98018.84
2022-10-29T14:45:28.416Z,98030.88
2022-10-29T14:48:10.131Z,98019.78
2022-10-29T14:50:37.647Z,98015.59
2022-10-29T14:53:18.568Z,98019.09
2022-10-29T14:55:49.275Z,98019.38
2022-10-29T14:58:30.018Z,98022.81
2022-10-29T15:01:03.645Z,98018.84
2022-10-29T15:03:34.037Z,98015.25
2022-10-29T15:06:26.026Z,98018.22
2022-10-29T15:09:01.488Z,98010.78
2022-10-29T15:11:38.726Z,98007.06
2022-10-29T15:14:32.987Z,98004.94
2022-10-29T15:17:01.539Z,98006.09
2022-10-29T15:19:29.172Z,98010.97
2022-10-29T15:21:56.471Z,98011.72
2022-10-29T15:24:24.553Z,98015.69
2022-10-29T15:26:56.511Z,98015.50
2022-10-29T15:29:34.031Z,98021.13
2022-10-29T15:32:02.924Z,98017.19
2022-10-29T15:34:40.497Z,98015.09
2022-10-29T15:37:39.104Z,98011.16
2022-10-29T15:40:24.290Z,98020.44
2022-10-29T15:42:53.103Z,98023.31
2022-10-29T15:45:23.896Z,98024.91
2022-10-29T15:48:09.167Z,98024.13
2022-10-29T15:50:43.479Z,98022.03
2022-10-29T15:53:17.681Z,98026.28
2022-10-29T15:55:45.197Z,98023.66
2022-10-29T15:58:18.183Z,98024.97
2022-10-29T16:00:46.417Z,98030.81
2022-10-29T16:03:26.758Z,98031.59
2022-10-29T16:06:03.949Z,98032.38
2022-10-29T16:08:39.548Z,98015.19
2022-10-29T16:11:16.112Z,98023.13
2022-10-29T16:13:43.478Z,98032.41
2022-10-29T16:16:18.762Z,98035.59
2022-10-29T16:18:49.078Z,98023.91
2022-10-29T16:21:26.075Z,98023.91
2022-10-29T16:23:53.780Z,98036.13
2022-10-29T16:26:24.791Z,98034.53
2022-10-29T16:28:55.638Z,98038.50
2022-10-29T16:31:27.509Z,98034.00
2022-10-29T16:33:59.039Z,98035.06
2022-10-29T16:36:26.494Z,98015.44
2022-10-29T16:38:53.715Z,98015.16
2022-10-29T16:41:21.584Z,98024.44
2022-10-29T16:43:49.188Z,98028.19
2022-10-29T16:46:16.572Z,98021.25
2022-10-29T16:48:44.227Z,98018.63
2022-10-29T16:51:11.458Z,98013.06
2022-10-29T16:53:39.106Z,98019.16
2022-10-29T16:56:06.876Z,98015.44
2022-10-29T16:58:34.293Z,98015.16
2022-10-29T17:01:10.722Z,98021.53
2022-10-29T17:03:39.314Z,98013.31
2022-10-29T17:06:10.529Z,98018.84
2022-10-29T17:08:38.948Z,98026.22
2022-10-29T17:11:10.283Z,98018.28
2022-10-29T17:13:38.679Z,98007.97
2022-10-29T17:16:08.389Z,98013.31
2022-10-29T17:18:35.794Z,98014.84
2022-10-29T17:21:04.120Z,98019.66
2022-10-29T17:23:32.932Z,98027.84
2022-10-29T17:26:00.818Z,98025.72
2022-10-29T17:28:28.747Z,98021.97
2022-10-29T17:30:56.116Z,98023.81
2022-10-29T17:33:23.548Z,98021.41
2022-10-29T17:36:00.160Z,98019.56
2022-10-29T17:38:27.492Z,98028.06
2022-10-29T17:40:54.721Z,98019.56
2022-10-29T17:43:22.217Z,98016.63
2022-10-29T17:45:50.667Z,98020.84
2022-10-29T17:48:22.329Z,98011.28
2022-10-29T17:51:01.817Z,98016.63
2022-10-29T17:53:30.695Z,98017.97
2022-10-29T17:55:59.920Z,98014.75
2022-10-29T17:58:27.973Z,98011.03
2022-10-29T18:01:02.423Z,98012.34
2022-10-29T18:03:29.729Z,98014.97
2022-10-29T18:06:05.889Z,98023.97
2022-10-29T18:08:36.008Z,98020.75
2022-10-29T18:11:17.446Z,98021.31
2022-10-29T18:13:46.455Z,98025.81
2022-10-29T18:16:18.541Z,98019.41
2022-10-29T18:19:01.004Z,98012.78
2022-10-29T18:21:30.348Z,98008.75
2022-10-29T18:23:58.175Z,98010.56
2022-10-29T18:26:34.231Z,98006.59
2022-10-29T18:29:10.626Z,98006.09
2022-10-29T18:31:40.262Z,98012.91
2022-10-29T18:34:08.010Z,98002.75
2022-10-29T18:36:38.963Z,98009.63
2022-10-29T18:39:06.594Z,98008.59
2022-10-29T18:41:34.944Z,98005.63
2022-10-29T18:44:02.596Z,97999.78
2022-10-29T18:46:30.025Z,98005.75
2022-10-29T18:48:57.316Z,98017.78
2022-10-29T18:51:30.565Z,98011.19
2022-10-29T18:53:59.520Z,98007.31
2022-10-29T18:56:29.477Z,98002.84
2022-10-29T18:58:58.995Z,98003.13
2022-10-29T19:01:31.727Z,98006.81
2022-10-29T19:04:03.700Z,98004.84
2022-10-29T19:06:34.335Z,98006.09
2022-10-29T19:09:03.351Z,98005.28
2022-10-29T19:11:30.891Z,98007.00
2022-10-29T19:14:01.686Z,98005.44
2022-10-29T19:16:31.128Z,98008.88
2022-10-29T19:19:07.970Z,98006.84
2022-10-29T19:21:37.189Z,98007.41
2022-10-29T19:24:05.770Z,98009.59
2022-10-29T19:26:35.902Z,98012.53
2022-10-29T19:29:07.943Z,98014.06
2022-10-29T19:31:36.779Z,98021.19
2022-10-29T19:34:07.284Z,98020.94
2022-10-29T19:36:36.952Z,98025.94
2022-10-29T19:39:05.008Z,98031.47
2022-10-29T19:41:33.014Z,98029.06
2022-10-29T19:44:01.969Z,98022.88
2022-10-29T19:46:30.313Z,98015.75
2022-10-29T19:48:58.507Z,98021.84
2022-10-29T19:51:25.970Z,98021.13
2022-10-29T19:53:53.407Z,98024.28
2022-10-29T19:56:21.754Z,98027.66
2022-10-29T19:58:49.305Z,98019.97
2022-10-29T20:01:19.008Z,98007.00
2022-10-29T20:03:47.213Z,98013.91
2022-10-29T20:06:15.921Z,98010.72
2022-10-29T20:08:43.330Z,98013.63
2022-10-29T20:11:10.855Z,98016.25
2022-10-29T20:13:39.883Z,98017.63
2022-10-29T20:16:10.278Z,98022.91
2022-10-29T20:18:38.490Z,98024.28
2022-10-29T20:23:38.710Z,98014.56
2022-10-29T20:26:07.401Z,98013.63
2022-10-29T20:28:35.257Z,98005.41
2022-10-29T20:31:17.825Z,98005.63
2022-10-29T20:33:59.285Z,98010.72
2022-10-29T20:36:31.631Z,98011.88
2022-10-29T20:38:59.099Z,98017.22
2022-10-29T20:41:27.633Z,98020.44
2022-10-29T20:43:58.021Z,98027.38
2022-10-29T20:46:26.491Z,98030.75
2022-10-29T20:48:53.898Z,98031.22
2022-10-29T20:51:22.903Z,98032.16
2022-10-29T20:53:51.593Z,98017.31
2022-10-29T20:56:21.152Z,98016.78
2022-10-29T20:58:48.563Z,98023.53
2022-10-29T21:01:18.434Z,98032.06
2022-10-29T21:03:48.108Z,98023.22
2022-10-29T21:06:17.538Z,98025.22
2022-10-29T21:08:51.108Z,98015.19
2022-10-29T21:11:20.696Z,98016.50
2022-10-29T21:13:48.077Z,98016.75
2022-10-29T21:16:28.206Z,98011.47
2022-10-29T21:18:58.598Z,98012.03
2022-10-29T21:21:27.465Z,98000.69
2022-10-29T21:23:56.389Z,98006.34
2022-10-29T21:26:26.365Z,98007.16
2022-10-29T21:28:54.662Z,98007.31
2022-10-29T21:31:23.485Z,98001.56
2022-10-29T21:33:52.556Z,98007.00
2022-10-29T21:36:20.324Z,97997.19
2022-10-29T21:38:48.265Z,97988.53
2022-10-29T21:41:15.967Z,97984.13
2022-10-29T21:43:43.203Z,97980.72
2022-10-29T21:46:10.773Z,97990.00
2022-10-29T21:48:37.931Z,97978.44
2022-10-29T21:51:11.754Z,97971.66
2022-10-29T21:53:39.039Z,97968.47
2022-10-29T21:56:08.750Z,97968.47
2022-10-29T21:58:35.984Z,97967.44
2022-10-29T22:01:21.254Z,97969.00
2022-10-29T22:03:48.533Z,97960.28
2022-10-29T22:06:19.108Z,97968.78
2022-10-29T22:08:47.139Z,97952.34
2022-10-29T22:11:15.730Z,97970.84
2022-10-29T22:13:42.944Z,97972.63
2022-10-29T22:16:11.550Z,97975.00
2022-10-29T22:18:39.888Z,97972.31
2022-10-29T22:21:16.060Z,97952.66
2022-10-29T22:23:58.205Z,97959.81
2022-10-29T22:26:30.524Z,97956.28
2022-10-29T22:28:57.937Z,97951.78
2022-10-29T22:31:25.358Z,97953.03
2022-10-29T22:33:52.819Z,97951.91
2022-10-29T22:36:23.904Z,97957.09
2022-10-29T22:39:00.032Z,97959.44
2022-10-29T22:41:29.413Z,97963.13
2022-10-29T22:44:00.050Z,97954.16
2022-10-29T22:46:28.491Z,97952.59
2022-10-29T22:48:56.490Z,97958.88
2022-10-29T22:51:26.704Z,97956.97
2022-10-29T22:53:54.838Z,97954.69
2022-10-29T22:56:31.864Z,97954.97
2022-10-29T22:58:59.610Z,97958.06
2022-10-29T23:01:30.696Z,97950.09
2022-10-29T23:03:59.183Z,97936.84
2022-10-29T23:06:28.245Z,97929.19
2022-10-29T23:09:04.005Z,97938.63
2022-10-29T23:11:35.008Z,97939.44
2022-10-29T23:14:03.006Z,97948.38
2022-10-29T23:16:33.055Z,97952.84
2022-10-29T23:19:02.914Z,97947.91
2022-10-29T23:21:30.301Z,97945.41
2022-10-29T23:23:58.269Z,97940.41
2022-10-29T23:26:26.798Z,97942.44
2022-10-29T23:28:54.079Z,97926.00
2022-10-29T23:31:24.490Z,97928.03
2022-10-29T23:33:54.353Z,97919.56
2022-10-29T23:36:23.957Z,97914.41
2022-10-29T23:38:59.942Z,97905.34
2022-10-29T23:41:31.661Z,97910.66
2022-10-29T23:43:59.425Z,97902.81
2022-10-29T23:46:26.597Z,97903.50
2022-10-29T23:48:54.321Z,97900.25
2022-10-29T23:51:21.927Z,97899.59
2022-10-29T23:53:53.124Z,97916.47
2022-10-29T23:56:23.735Z,97924.84
2022-10-29T23:58:50.865Z,97926.41
